createdAt,value
2023-04-06T00:05:50.350Z,58.99
2023-04-06T00:11:14.235Z,59.59
2023-04-06T00:16:38.397Z,60.21
2023-04-06T00:22:03.617Z,60.70
2023-04-06T00:27:27.751Z,61.06
2023-04-06T00:32:52.598Z,61.30
2023-04-06T00:38:16.954Z,61.59
2023-04-06T00:43:40.869Z,62.01
2023-04-06T00:49:05.415Z,71.69
2023-04-06T00:54:30.797Z,78.17
2023-04-06T00:59:56.470Z,74.50
2023-04-06T01:05:21.405Z,69.70
2023-04-06T01:10:51.843Z,65.20
2023-04-06T01:16:23.570Z,62.05
2023-04-06T01:22:06.499Z,60.14
2023-04-06T01:27:31.414Z,52.33
2023-04-06T01:33:12.775Z,47.02
2023-04-06T01:38:55.814Z,47.15
2023-04-06T01:44:26.932Z,46.70
2023-04-06T01:50:00.279Z,49.45
2023-04-06T01:55:25.116Z,51.29
2023-04-06T02:01:05.160Z,52.71
2023-04-06T02:06:36.906Z,54.01
2023-04-06T02:12:03.133Z,55.33
2023-04-06T02:17:28.786Z,56.48
2023-04-06T02:22:53.112Z,57.28
2023-04-06T02:28:17.793Z,57.89
2023-04-06T02:33:42.209Z,58.45
2023-04-06T02:39:08.332Z,58.85
2023-04-06T02:44:32.953Z,59.43
2023-04-06T02:49:57.145Z,60.00
2023-04-06T02:55:22.244Z,60.44
2023-04-06T03:00:46.756Z,60.81
2023-04-06T03:06:10.842Z,61.11
2023-04-06T03:11:35.466Z,61.46
2023-04-06T03:16:59.990Z,61.87
2023-04-06T03:22:24.072Z,71.56
2023-04-06T03:27:48.070Z,79.36
2023-04-06T03:33:13.490Z,75.22
2023-04-06T03:38:45.680Z,70.52
2023-04-06T03:44:11.535Z,65.83
2023-04-06T03:49:35.991Z,61.18
2023-04-06T03:55:03.909Z,51.81
2023-04-06T04:00:28.433Z,45.91
2023-04-06T04:05:52.922Z,46.05
2023-04-06T04:11:17.231Z,47.45
2023-04-06T04:16:44.988Z,49.30
2023-04-06T04:22:09.520Z,50.59
2023-04-06T04:27:36.391Z,52.05
2023-04-06T04:33:01.025Z,53.21
2023-04-06T04:38:26.023Z,54.33
2023-04-06T04:43:52.215Z,55.43
2023-04-06T04:49:20.308Z,56.44
2023-04-06T04:54:48.469Z,57.12
2023-04-06T05:00:18.940Z,57.73
2023-04-06T05:05:43.644Z,58.24
2023-04-06T05:11:07.995Z,58.79
2023-04-06T05:17:34.303Z,59.58
2023-04-06T05:23:07.124Z,60.08
2023-04-06T05:28:32.467Z,60.69
2023-04-06T05:33:58.651Z,60.99
2023-04-06T05:39:29.573Z,61.35
2023-04-06T05:44:54.938Z,70.80
2023-04-06T05:50:20.109Z,78.95
2023-04-06T05:55:46.767Z,75.08
2023-04-06T06:01:17.106Z,70.21
2023-04-06T06:06:43.911Z,65.12
2023-04-06T06:12:23.531Z,61.71
2023-04-06T06:17:47.754Z,52.22
2023-04-06T06:23:12.166Z,47.80
2023-04-06T06:28:37.571Z,49.18
2023-04-06T06:34:03.211Z,51.33
2023-04-06T06:39:30.366Z,53.32
2023-04-06T06:44:55.698Z,54.60
2023-04-06T06:50:22.263Z,56.40
2023-04-06T06:55:47.009Z,57.84
2023-04-06T07:01:11.972Z,59.21
2023-04-06T07:06:37.805Z,60.48
2023-04-06T07:12:03.344Z,61.79
2023-04-06T07:17:28.087Z,71.23
2023-04-06T07:22:52.308Z,75.38
2023-04-06T07:28:16.899Z,72.09
2023-04-06T07:33:41.729Z,66.87
2023-04-06T07:39:06.531Z,62.24
2023-04-06T07:44:32.107Z,53.89
2023-04-06T07:49:59.831Z,49.48
2023-04-06T07:55:24.051Z,49.35
2023-04-06T08:00:48.402Z,49.91
2023-04-06T08:06:12.655Z,51.12
2023-04-06T08:11:37.195Z,52.62
2023-04-06T08:17:01.792Z,54.41
2023-04-06T08:22:25.692Z,54.42
2023-04-06T08:27:49.947Z,54.68
2023-04-06T08:33:14.091Z,54.19
2023-04-06T08:38:38.176Z,55.80
2023-04-06T08:44:04.740Z,54.50
2023-04-06T08:49:29.630Z,52.94
2023-04-06T08:54:54.065Z,52.00
2023-04-06T09:00:19.243Z,51.76
2023-04-06T09:05:43.497Z,51.22
2023-04-06T09:11:08.214Z,51.21
2023-04-06T09:16:41.344Z,50.87
2023-04-06T09:22:08.692Z,50.78
2023-04-06T09:27:40.042Z,50.05
2023-04-06T09:33:04.298Z,48.98
2023-04-06T09:38:28.428Z,47.78
2023-04-06T09:43:54.548Z,47.29
2023-04-06T09:49:20.857Z,47.31
2023-04-06T09:54:47.946Z,47.01
2023-04-06T10:00:19.243Z,46.50
2023-04-06T10:05:54.948Z,46.78
2023-04-06T10:11:19.683Z,46.12
2023-04-06T10:16:44.770Z,45.88
2023-04-06T10:22:14.513Z,45.84
2023-04-06T10:27:38.671Z,46.06
2023-04-06T10:33:22.813Z,45.66
2023-04-06T10:38:47.080Z,45.36
2023-04-06T10:44:23.094Z,45.93
2023-04-06T10:49:48.218Z,45.96
2023-04-06T10:55:16.356Z,44.59
2023-04-06T11:00:51.114Z,44.60
2023-04-06T11:06:28.860Z,43.84
2023-04-06T11:11:53.964Z,44.67
2023-04-06T11:17:18.201Z,43.85
2023-04-06T11:23:09.221Z,42.74
2023-04-06T11:28:33.676Z,41.40
2023-04-06T11:33:58.940Z,42.31
2023-04-06T11:39:25.264Z,41.93
2023-04-06T11:44:52.788Z,41.27
2023-04-06T11:50:17.558Z,41.39
2023-04-06T11:55:42.427Z,40.80
2023-04-06T12:01:07.755Z,39.68
2023-04-06T12:07:34.988Z,39.87
2023-04-06T12:12:59.890Z,40.36
2023-04-06T12:18:24.416Z,40.19
2023-04-06T12:23:49.181Z,39.77
2023-04-06T12:29:14.785Z,40.73
2023-04-06T12:34:40.409Z,39.69
2023-04-06T12:40:05.592Z,37.80
2023-04-06T12:45:30.080Z,38.14
2023-04-06T12:51:02.632Z,38.45
2023-04-06T12:56:27.340Z,38.52
2023-04-06T13:01:52.497Z,38.88
2023-04-06T13:07:18.596Z,39.18
2023-04-06T13:12:43.147Z,37.05
2023-04-06T13:18:08.088Z,38.19
2023-04-06T13:23:32.449Z,38.23
2023-04-06T13:28:58.101Z,37.62
2023-04-06T13:34:22.771Z,38.36
2023-04-06T13:39:48.593Z,38.63
2023-04-06T13:45:13.409Z,37.18
2023-04-06T13:50:38.306Z,36.54
2023-04-06T13:56:02.723Z,37.52
2023-04-06T14:01:27.970Z,38.24
2023-04-06T14:06:52.219Z,38.55
2023-04-06T14:12:16.879Z,38.30
2023-04-06T14:17:41.596Z,37.52
2023-04-06T14:23:05.927Z,38.31
2023-04-06T14:28:30.195Z,38.30
2023-04-06T14:33:54.544Z,38.46
2023-04-06T14:39:19.154Z,38.18
2023-04-06T14:44:47.545Z,38.37
2023-04-06T14:50:12.536Z,39.13
2023-04-06T14:55:42.757Z,39.29
2023-04-06T15:01:07.906Z,38.40
2023-04-06T15:06:32.268Z,38.15
2023-04-06T15:11:57.173Z,37.90
2023-04-06T15:17:22.264Z,39.20
2023-04-06T15:22:46.882Z,38.59
2023-04-06T15:28:11.331Z,38.52
2023-04-06T15:33:35.242Z,38.08
2023-04-06T15:39:00.213Z,38.24
2023-04-06T15:44:25.558Z,37.75
2023-04-06T15:49:51.070Z,37.86
2023-04-06T15:55:16.173Z,39.12
2023-04-06T16:00:40.484Z,38.78
2023-04-06T16:06:08.897Z,37.94
2023-04-06T16:11:33.545Z,38.86
2023-04-06T16:16:59.611Z,38.40
2023-04-06T16:22:25.469Z,37.99
2023-04-06T16:27:52.382Z,37.21
2023-04-06T16:33:20.871Z,37.83
2023-04-06T16:38:45.082Z,38.43
2023-04-06T16:44:11.369Z,38.30
2023-04-06T16:49:35.881Z,38.82
2023-04-06T16:55:01.157Z,39.34
2023-04-06T17:00:25.978Z,39.52
2023-04-06T17:05:50.623Z,39.79
2023-04-06T17:11:20.012Z,39.88
2023-04-06T17:16:48.303Z,40.16
2023-04-06T17:22:27.129Z,40.46
2023-04-06T17:28:03.559Z,40.63
2023-04-06T17:33:30.517Z,40.82
2023-04-06T17:38:55.745Z,41.14
2023-04-06T17:44:20.068Z,41.21
2023-04-06T17:49:44.455Z,41.57
2023-04-06T17:55:09.322Z,42.12
2023-04-06T18:00:34.193Z,42.45
2023-04-06T18:05:58.306Z,42.99
2023-04-06T18:11:23.569Z,43.52
2023-04-06T18:16:47.944Z,44.02
2023-04-06T18:22:18.239Z,44.59
2023-04-06T18:27:55.335Z,45.00
2023-04-06T18:33:36.488Z,45.45
2023-04-06T18:39:13.575Z,45.85
2023-04-06T18:44:38.154Z,46.39
2023-04-06T18:50:02.527Z,46.91
2023-04-06T18:55:27.137Z,47.27
2023-04-06T19:00:51.449Z,47.53
2023-04-06T19:06:16.283Z,47.94
2023-04-06T19:11:41.028Z,48.31
2023-04-06T19:17:07.964Z,48.60
2023-04-06T19:22:35.889Z,48.86
2023-04-06T19:28:00.740Z,49.18
2023-04-06T19:33:25.551Z,49.62
2023-04-06T19:38:50.749Z,50.06
2023-04-06T19:44:16.666Z,50.43
2023-04-06T19:49:41.099Z,50.73
2023-04-06T19:55:05.603Z,50.94
2023-04-06T20:00:31.408Z,51.24
2023-04-06T20:05:55.626Z,51.47
2023-04-06T20:11:21.664Z,51.67
2023-04-06T20:16:46.387Z,51.91
2023-04-06T20:22:10.799Z,52.16
2023-04-06T20:27:35.023Z,52.50
2023-04-06T20:32:59.270Z,52.84
2023-04-06T20:38:32.332Z,53.23
2023-04-06T20:43:57.811Z,53.51
2023-04-06T20:49:24.874Z,53.80
2023-04-06T20:54:50.910Z,54.12
2023-04-06T21:00:16.168Z,54.60
2023-04-06T21:05:40.232Z,55.23
2023-04-06T21:11:05.414Z,55.56
2023-04-06T21:16:30.221Z,55.75
2023-04-06T21:21:55.422Z,56.00
2023-04-06T21:27:19.463Z,56.26
2023-04-06T21:32:43.653Z,56.77
2023-04-06T21:38:09.483Z,57.27
2023-04-06T21:43:34.281Z,57.43
2023-04-06T21:49:00.253Z,57.58
2023-04-06T21:54:24.691Z,57.67
2023-04-06T21:59:48.593Z,57.77
2023-04-06T22:05:13.567Z,58.09
2023-04-06T22:10:39.112Z,58.56
2023-04-06T22:16:04.328Z,58.93
2023-04-06T22:21:29.716Z,59.24
2023-04-06T22:26:54.109Z,59.50
2023-04-06T22:32:18.603Z,59.42
2023-04-06T22:37:43.951Z,59.53
2023-04-06T22:43:08.221Z,59.56
2023-04-06T22:48:32.256Z,59.70
2023-04-06T22:53:56.941Z,60.09
2023-04-06T22:59:21.400Z,60.32
2023-04-06T23:04:48.069Z,60.49
2023-04-06T23:10:12.204Z,60.55
2023-04-06T23:15:36.725Z,60.96
2023-04-06T23:21:01.286Z,61.13
2023-04-06T23:26:27.431Z,61.15
2023-04-06T23:31:52.071Z,61.31
2023-04-06T23:37:15.993Z,61.61
2023-04-06T23:42:39.775Z,61.86
2023-04-06T23:48:04.241Z,61.92
2023-04-06T23:53:28.640Z,62.06
2023-04-06T23:58:53.829Z,72.22
